createdAt,value
2019-03-25T00:01:19.327Z,22.07
2019-03-25T00:07:22.445Z,20.43
2019-03-25T00:12:38.760Z,19.10
2019-03-25T00:15:47.199Z,19.63
2019-03-25T00:18:15.873Z,19.20
2019-03-25T00:21:04.142Z,20.20
2019-03-25T00:23:52.102Z,19.60
2019-03-25T00:26:20.719Z,20.27
2019-03-25T00:29:08.646Z,19.43
2019-03-25T00:31:56.513Z,19.00
2019-03-25T00:34:44.382Z,18.07
2019-03-25T00:37:13.068Z,17.70
2019-03-25T00:40:00.966Z,18.23
2019-03-25T00:42:29.657Z,16.30
2019-03-25T00:44:58.302Z,17.97
2019-03-25T00:47:46.251Z,16.60
2019-03-25T00:50:15.042Z,15.33
2019-03-25T00:52:43.692Z,15.93
2019-03-25T00:55:31.572Z,17.63
2019-03-25T00:58:19.429Z,16.67
2019-03-25T01:00:48.157Z,16.13
2019-03-25T01:06:04.488Z,13.97
2019-03-25T01:08:33.215Z,13.77
2019-03-25T01:11:21.031Z,16.20
2019-03-25T01:14:08.933Z,15.43
2019-03-25T01:16:56.885Z,14.67
2019-03-25T01:19:25.700Z,13.10
2019-03-25T01:21:54.353Z,14.17
2019-03-25T01:24:42.313Z,12.73
2019-03-25T01:27:11.009Z,13.27
2019-03-25T01:32:14.254Z,13.83
2019-03-25T01:35:02.230Z,13.30
2019-03-25T01:37:50.056Z,13.20
2019-03-25T01:40:58.540Z,13.07
2019-03-25T01:43:46.371Z,14.63
2019-03-25T01:46:34.308Z,14.40
2019-03-25T01:49:22.258Z,14.00
2019-03-25T01:52:10.132Z,14.30
2019-03-25T01:54:58.089Z,13.27
2019-03-25T01:57:26.737Z,14.17
2019-03-25T02:00:14.681Z,13.17
2019-03-25T02:03:02.518Z,14.63
2019-03-25T02:05:50.489Z,12.27
2019-03-25T02:08:38.445Z,13.33
2019-03-25T02:11:26.250Z,11.80
2019-03-25T02:13:54.901Z,14.13
2019-03-25T02:16:42.787Z,12.07
2019-03-25T02:22:18.245Z,11.07
2019-03-25T02:27:53.762Z,8.60
2019-03-25T02:32:57.042Z,10.00
2019-03-25T02:35:44.776Z,11.33
2019-03-25T02:38:32.603Z,9.03
2019-03-25T02:41:20.571Z,10.47
2019-03-25T02:43:49.139Z,9.70
2019-03-25T02:46:37.036Z,9.77
2019-03-25T02:49:05.723Z,8.13
2019-03-25T02:51:53.666Z,9.10
2019-03-25T02:54:41.670Z,8.87
2019-03-25T02:57:29.485Z,8.27
2019-03-25T03:00:17.329Z,9.03
2019-03-25T03:03:05.147Z,9.53
2019-03-25T03:05:53.109Z,9.00
2019-03-25T03:08:40.944Z,9.37
2019-03-25T03:11:28.830Z,8.70
2019-03-25T03:14:16.791Z,9.17
2019-03-25T03:17:04.577Z,9.00
2019-03-25T03:19:33.224Z,9.50
2019-03-25T03:22:21.109Z,8.70
2019-03-25T03:24:49.835Z,8.13
2019-03-25T03:27:18.484Z,8.03
2019-03-25T03:30:06.365Z,7.37
2019-03-25T03:32:35.011Z,8.60
2019-03-25T03:37:58.578Z,7.73
2019-03-25T03:43:04.478Z,7.73
2019-03-25T03:45:33.205Z,6.97
2019-03-25T03:48:01.826Z,7.50
2019-03-25T03:50:30.524Z,6.30
2019-03-25T03:52:59.248Z,7.70
2019-03-25T03:59:02.272Z,6.70
2019-03-25T04:01:30.912Z,6.43
2019-03-25T04:03:59.527Z,7.63
2019-03-25T04:06:28.424Z,5.83
2019-03-25T04:09:16.367Z,5.37
2019-03-25T04:14:19.135Z,5.23
2019-03-25T04:16:47.887Z,3.97
2019-03-25T04:19:35.719Z,4.97
2019-03-25T04:22:23.660Z,4.13
2019-03-25T04:25:11.493Z,5.23
2019-03-25T04:27:59.380Z,3.87
2019-03-25T04:30:47.806Z,4.13
2019-03-25T04:33:18.157Z,3.40
2019-03-25T04:36:06.059Z,3.67
2019-03-25T04:38:53.930Z,3.83
2019-03-25T04:41:41.654Z,3.77
2019-03-25T04:44:29.516Z,3.63
2019-03-25T04:46:58.144Z,3.57
2019-03-25T04:49:26.715Z,3.83
2019-03-25T04:52:14.590Z,3.90
2019-03-25T04:55:02.384Z,3.20
2019-03-25T04:57:31.022Z,3.90
2019-03-25T05:00:18.880Z,3.30
2019-03-25T05:03:06.631Z,2.90
2019-03-25T05:05:36.296Z,3.53
2019-03-25T05:08:05.704Z,3.70
2019-03-25T05:10:34.357Z,5.03
2019-03-25T05:13:03.045Z,4.73
2019-03-25T05:15:31.618Z,3.20
2019-03-25T05:18:00.296Z,4.13
2019-03-25T05:20:28.908Z,3.73
2019-03-25T05:23:16.864Z,3.57
2019-03-25T05:25:45.545Z,3.97
2019-03-25T05:28:14.119Z,4.63
2019-03-25T05:30:42.809Z,4.30
2019-03-25T05:33:30.643Z,4.10
2019-03-25T05:35:59.260Z,3.80
2019-03-25T05:38:47.208Z,4.67
2019-03-25T05:41:34.969Z,3.57
2019-03-25T05:44:43.435Z,3.30
2019-03-25T05:47:12.071Z,4.57
2019-03-25T05:49:40.752Z,4.57
2019-03-25T05:52:09.436Z,4.67
2019-03-25T05:54:57.279Z,4.60
2019-03-25T05:57:45.548Z,4.77
2019-03-25T06:06:58.878Z,4.83
2019-03-25T06:12:56.024Z,4.07
2019-03-25T06:15:45.757Z,4.57
2019-03-25T06:18:14.406Z,4.93
2019-03-25T06:21:02.163Z,5.03
2019-03-25T06:23:50.035Z,4.87
2019-03-25T06:26:37.892Z,5.13
2019-03-25T06:29:25.697Z,5.27
2019-03-25T06:32:13.643Z,4.80
2019-03-25T06:34:42.397Z,4.40
2019-03-25T06:37:11.051Z,3.90
2019-03-25T06:39:59.019Z,5.67
2019-03-25T06:42:27.584Z,5.23
2019-03-25T06:44:56.239Z,4.57
2019-03-25T06:47:24.929Z,4.67
2019-03-25T06:49:53.582Z,4.60
2019-03-25T06:52:22.262Z,3.93
2019-03-25T06:54:50.997Z,4.40
2019-03-25T06:57:25.443Z,4.40
2019-03-25T06:59:50.056Z,9.17
2019-03-25T07:02:37.939Z,4.73
2019-03-25T07:05:46.418Z,4.13
2019-03-25T07:08:34.294Z,4.10
2019-03-25T07:11:42.769Z,6.50
2019-03-25T07:14:11.455Z,4.40
2019-03-25T07:16:40.139Z,4.10
2019-03-25T07:19:48.601Z,4.13
2019-03-25T07:22:17.248Z,5.10
2019-03-25T07:25:05.117Z,5.37
2019-03-25T07:27:52.982Z,4.13
2019-03-25T07:30:40.744Z,3.70
2019-03-25T07:33:09.393Z,4.23
2019-03-25T07:35:57.274Z,4.30
2019-03-25T07:38:25.912Z,4.40
2019-03-25T07:40:54.458Z,4.27
2019-03-25T07:43:23.100Z,4.93
2019-03-25T07:45:51.903Z,4.77
2019-03-25T07:48:20.404Z,4.93
2019-03-25T07:50:49.055Z,4.70
2019-03-25T07:53:36.995Z,4.93
2019-03-25T07:56:24.891Z,4.50
2019-03-25T07:59:12.743Z,5.87
2019-03-25T08:02:00.566Z,5.67
2019-03-25T08:04:48.414Z,4.93
2019-03-25T08:07:17.003Z,5.33
2019-03-25T08:10:04.811Z,5.13
2019-03-25T08:12:52.719Z,5.40
2019-03-25T08:15:40.697Z,4.87
2019-03-25T08:18:28.509Z,3.87
2019-03-25T08:20:57.157Z,4.20
2019-03-25T08:23:25.833Z,4.83
2019-03-25T08:25:54.406Z,5.00
2019-03-25T08:28:42.347Z,3.53
2019-03-25T08:33:45.546Z,3.93
2019-03-25T08:39:22.359Z,3.90
2019-03-25T08:41:51.047Z,3.67
2019-03-25T08:44:38.812Z,4.03
2019-03-25T08:47:07.359Z,4.50
2019-03-25T08:49:35.977Z,3.57
2019-03-25T08:52:23.738Z,4.50
2019-03-25T08:54:52.428Z,3.90
2019-03-25T08:57:40.298Z,3.67
2019-03-25T09:00:48.759Z,3.63
2019-03-25T09:03:36.637Z,3.87
2019-03-25T09:06:05.383Z,4.23
2019-03-25T09:08:34.097Z,3.30
2019-03-25T09:11:21.975Z,3.70
2019-03-25T09:14:09.795Z,4.50
2019-03-25T09:16:38.479Z,3.57
2019-03-25T09:22:15.292Z,4.83
2019-03-25T09:24:43.879Z,3.57
2019-03-25T09:27:31.732Z,4.43
2019-03-25T09:30:03.330Z,4.10
2019-03-25T09:32:30.847Z,3.80
2019-03-25T09:35:18.926Z,4.43
2019-03-25T09:37:47.609Z,2.87
2019-03-25T09:40:16.240Z,3.30
2019-03-25T09:43:04.179Z,3.50
2019-03-25T09:45:33.008Z,3.40
2019-03-25T09:48:20.829Z,2.70
2019-03-25T09:50:49.617Z,2.90
2019-03-25T09:53:37.530Z,2.70
2019-03-25T09:56:25.249Z,2.60
2019-03-25T09:59:13.063Z,2.40
2019-03-25T10:02:00.872Z,2.53
2019-03-25T10:04:29.647Z,2.27
2019-03-25T10:07:38.152Z,2.80
2019-03-25T10:10:46.596Z,3.00
2019-03-25T10:13:15.279Z,2.87
2019-03-25T10:16:03.220Z,3.67
2019-03-25T10:18:31.863Z,3.43
2019-03-25T10:21:00.516Z,3.90
2019-03-25T10:23:48.597Z,5.20
2019-03-25T10:26:37.979Z,3.70
2019-03-25T10:29:25.808Z,3.67
2019-03-25T10:31:54.495Z,2.80
2019-03-25T10:34:23.168Z,4.67
2019-03-25T10:36:51.847Z,4.07
2019-03-25T10:39:20.488Z,3.50
2019-03-25T10:42:08.355Z,3.30
2019-03-25T10:44:36.977Z,3.70
2019-03-25T10:49:39.650Z,3.63
2019-03-25T10:52:48.062Z,4.20
2019-03-25T10:55:16.747Z,3.30
2019-03-25T10:57:45.392Z,2.80
2019-03-25T11:00:53.857Z,3.50
2019-03-25T11:03:41.682Z,2.70
2019-03-25T11:09:44.543Z,5.53
2019-03-25T11:12:32.388Z,3.60
2019-03-25T11:15:01.058Z,4.13
2019-03-25T11:17:48.973Z,3.67
2019-03-25T11:23:12.235Z,3.70
2019-03-25T11:25:40.924Z,3.97
2019-03-25T11:28:09.593Z,3.43
2019-03-25T11:31:18.064Z,3.50
2019-03-25T11:33:46.714Z,3.40
2019-03-25T11:36:15.401Z,3.37
2019-03-25T11:38:44.050Z,3.90
2019-03-25T11:41:12.726Z,3.53
2019-03-25T11:43:41.363Z,3.33
2019-03-25T11:46:10.072Z,3.43
2019-03-25T11:48:38.738Z,4.13
2019-03-25T11:51:07.381Z,3.27
2019-03-25T11:53:36.067Z,3.23
2019-03-25T11:56:04.704Z,3.50
2019-03-25T11:58:33.383Z,3.00
2019-03-25T12:01:21.167Z,3.57
2019-03-25T12:04:10.593Z,4.13
2019-03-25T12:06:39.393Z,2.90
2019-03-25T12:09:47.851Z,2.70
2019-03-25T12:15:23.394Z,2.97
2019-03-25T12:17:52.026Z,3.80
2019-03-25T12:20:20.715Z,3.30
2019-03-25T12:22:49.416Z,2.43
2019-03-25T12:25:18.062Z,3.07
2019-03-25T12:27:46.842Z,3.40
2019-03-25T12:33:23.735Z,3.43
2019-03-25T12:36:11.615Z,3.57
2019-03-25T12:38:59.508Z,3.20
2019-03-25T12:41:47.343Z,2.87
2019-03-25T12:44:15.957Z,3.17
2019-03-25T12:47:03.791Z,2.83
2019-03-25T12:49:32.479Z,2.60
2019-03-25T12:52:20.328Z,2.83
2019-03-25T12:54:48.986Z,2.20
2019-03-25T12:57:36.838Z,2.40
2019-03-25T13:00:45.294Z,2.40
2019-03-25T13:03:13.966Z,2.50
2019-03-25T13:08:50.771Z,1.43
2019-03-25T13:11:19.532Z,2.10
2019-03-25T13:14:07.356Z,0.93
2019-03-25T13:16:36.029Z,1.90
2019-03-25T13:19:04.805Z,1.13
2019-03-25T13:21:33.414Z,2.30
2019-03-25T13:24:02.018Z,1.50
2019-03-25T13:26:49.833Z,1.40
2019-03-25T13:29:18.504Z,1.30
2019-03-25T13:32:06.333Z,1.80
2019-03-25T13:34:35.024Z,1.50
2019-03-25T13:37:03.669Z,1.40
2019-03-25T13:39:51.528Z,1.40
2019-03-25T13:42:39.218Z,2.70
2019-03-25T13:45:47.695Z,2.47
2019-03-25T13:48:35.492Z,1.70
2019-03-25T13:51:43.978Z,4.57
2019-03-25T13:54:31.759Z,1.50
2019-03-25T13:57:00.375Z,1.37
2019-03-25T13:59:28.939Z,2.17
2019-03-25T14:01:57.549Z,2.10
2019-03-25T14:04:26.193Z,1.93
2019-03-25T14:07:14.064Z,1.97
2019-03-25T14:10:01.798Z,1.90
2019-03-25T14:12:51.892Z,2.30
2019-03-25T14:15:20.229Z,1.53
2019-03-25T14:17:48.864Z,3.00
2019-03-25T14:20:17.483Z,2.27
2019-03-25T14:22:46.026Z,2.27
2019-03-25T14:25:14.668Z,2.60
2019-03-25T14:28:02.543Z,1.80
2019-03-25T14:30:31.229Z,1.90
2019-03-25T14:33:20.819Z,1.53
2019-03-25T14:36:08.763Z,2.40
2019-03-25T14:38:56.564Z,1.87
2019-03-25T14:41:25.197Z,2.37
2019-03-25T14:44:13.456Z,1.63
2019-03-25T14:46:42.202Z,2.00
2019-03-25T14:49:10.885Z,1.43
2019-03-25T14:51:39.524Z,2.80
2019-03-25T14:54:08.225Z,2.40
2019-03-25T14:56:56.149Z,1.57
2019-03-25T14:59:44.001Z,1.50
2019-03-25T15:02:12.749Z,2.37
2019-03-25T15:04:41.393Z,1.50
2019-03-25T15:07:10.073Z,1.77
2019-03-25T15:09:38.707Z,1.40
2019-03-25T15:12:07.394Z,2.33
2019-03-25T15:14:36.098Z,1.00
2019-03-25T15:17:44.583Z,1.27
2019-03-25T15:20:53.011Z,1.50
2019-03-25T15:23:40.884Z,1.80
2019-03-25T15:26:09.522Z,1.23
2019-03-25T15:28:38.269Z,1.33
2019-03-25T15:31:07.005Z,1.10
2019-03-25T15:33:35.616Z,1.60
2019-03-25T15:36:04.298Z,1.90
2019-03-25T15:41:20.555Z,1.10
2019-03-25T15:44:08.529Z,1.30
2019-03-25T15:46:56.459Z,1.60
2019-03-25T15:49:44.403Z,1.10
2019-03-25T15:52:13.036Z,1.30
2019-03-25T15:55:00.911Z,1.37
2019-03-25T15:57:29.589Z,1.20
2019-03-25T15:59:58.337Z,1.10
2019-03-25T16:02:27.025Z,1.73
2019-03-25T16:05:14.968Z,1.20
2019-03-25T16:08:02.873Z,1.10
2019-03-25T16:10:31.481Z,1.37
2019-03-25T16:13:00.153Z,1.67
2019-03-25T16:15:48.078Z,1.17
2019-03-25T16:18:36.808Z,1.10
2019-03-25T16:21:24.868Z,1.30
2019-03-25T16:23:53.580Z,1.50
2019-03-25T16:26:22.224Z,2.50
2019-03-25T16:29:10.085Z,2.77
2019-03-25T16:31:38.689Z,1.20
2019-03-25T16:34:07.370Z,1.60
2019-03-25T16:36:36.059Z,1.10
2019-03-25T16:39:44.493Z,1.50
2019-03-25T16:42:32.369Z,1.70
2019-03-25T16:45:20.337Z,1.37
2019-03-25T16:48:08.215Z,1.67
2019-03-25T16:50:36.782Z,1.40
2019-03-25T16:53:05.463Z,1.70
2019-03-25T16:55:34.146Z,1.47
2019-03-25T16:58:02.804Z,1.90
2019-03-25T17:00:31.483Z,1.57
2019-03-25T17:05:34.224Z,1.37
2019-03-25T17:08:22.103Z,1.90
2019-03-25T17:11:09.998Z,1.37
2019-03-25T17:13:59.452Z,1.10
2019-03-25T17:16:47.255Z,1.80
2019-03-25T17:19:15.934Z,2.17
2019-03-25T17:21:44.507Z,1.80
2019-03-25T17:24:14.234Z,1.40
2019-03-25T17:26:43.586Z,1.13
2019-03-25T17:29:12.264Z,0.83
2019-03-25T17:31:40.835Z,0.90
2019-03-25T17:34:28.784Z,0.90
2019-03-25T17:36:57.478Z,0.80
2019-03-25T17:39:45.314Z,1.00
2019-03-25T17:42:33.377Z,0.80
2019-03-25T17:45:21.228Z,0.80
2019-03-25T17:48:09.083Z,1.00
2019-03-25T17:50:57.106Z,1.20
2019-03-25T17:53:44.976Z,1.90
2019-03-25T17:56:33.040Z,1.60
2019-03-25T17:59:01.726Z,2.00
2019-03-25T18:04:19.568Z,2.20
2019-03-25T18:06:48.176Z,1.30
2019-03-25T18:12:04.501Z,1.70
2019-03-25T18:14:33.091Z,1.67
2019-03-25T18:17:21.177Z,1.53
2019-03-25T18:20:18.128Z,1.83
2019-03-25T18:22:40.171Z,1.63
2019-03-25T18:25:09.833Z,2.30
2019-03-25T18:27:38.500Z,1.50
2019-03-25T18:30:46.961Z,1.50
2019-03-25T18:33:16.308Z,2.10
2019-03-25T18:36:04.105Z,1.80
2019-03-25T18:38:52.060Z,3.73
2019-03-25T18:41:20.702Z,2.40
2019-03-25T18:44:08.778Z,2.27
2019-03-25T18:49:30.704Z,1.87
2019-03-25T18:52:18.464Z,2.27
2019-03-25T18:57:42.270Z,4.13
2019-03-25T19:00:50.730Z,3.60
2019-03-25T19:03:38.631Z,2.53
2019-03-25T19:06:07.392Z,1.80
2019-03-25T19:09:16.025Z,1.30
2019-03-25T19:11:44.700Z,1.27
2019-03-25T19:17:08.026Z,1.57
2019-03-25T19:19:36.791Z,1.20
2019-03-25T19:22:05.660Z,1.70
2019-03-25T19:27:42.492Z,1.83
2019-03-25T19:30:50.942Z,2.17
2019-03-25T19:33:19.886Z,2.17
2019-03-25T19:36:07.719Z,2.20
2019-03-25T19:38:37.181Z,2.23
2019-03-25T19:41:07.368Z,1.47
2019-03-25T19:44:02.171Z,2.37
2019-03-25T19:46:50.080Z,1.80
2019-03-25T19:49:37.899Z,2.40
2019-03-25T19:52:25.766Z,2.53
2019-03-25T19:54:54.329Z,2.57
2019-03-25T19:57:42.227Z,2.40
2019-03-25T20:00:31.600Z,3.00
2019-03-25T20:03:19.351Z,2.07
2019-03-25T20:06:27.777Z,1.93
2019-03-25T20:09:15.623Z,3.07
2019-03-25T20:12:03.385Z,2.63
2019-03-25T20:14:32.343Z,2.33
2019-03-25T20:17:20.150Z,2.43
2019-03-25T20:20:08.345Z,2.40
2019-03-25T20:25:31.739Z,3.67
2019-03-25T20:28:00.549Z,6.00
2019-03-25T20:30:29.202Z,4.70
2019-03-25T20:33:17.035Z,4.27
2019-03-25T20:35:45.914Z,3.83
2019-03-25T20:38:14.580Z,3.57
2019-03-25T20:41:02.604Z,3.67
2019-03-25T20:43:32.975Z,3.63
2019-03-25T20:46:20.946Z,2.67
2019-03-25T20:48:49.502Z,1.60
2019-03-25T20:51:37.293Z,2.27
2019-03-25T20:54:06.137Z,2.20
2019-03-25T20:56:34.781Z,2.40
2019-03-25T20:59:03.490Z,2.47
2019-03-25T21:01:32.122Z,2.57
2019-03-25T21:04:00.821Z,2.77
2019-03-25T21:06:29.531Z,2.57
2019-03-25T21:08:58.211Z,3.87
2019-03-25T21:11:27.034Z,4.20
2019-03-25T21:17:02.497Z,5.87
2019-03-25T21:19:50.364Z,4.03
2019-03-25T21:22:19.169Z,3.77
2019-03-25T21:25:07.071Z,4.27
2019-03-25T21:27:35.672Z,4.40
2019-03-25T21:32:59.659Z,5.50
2019-03-25T21:36:08.191Z,7.03
2019-03-25T21:38:36.815Z,4.93
2019-03-25T21:41:24.798Z,4.73
2019-03-25T21:44:14.363Z,5.47
2019-03-25T21:49:30.807Z,4.80
2019-03-25T21:51:59.822Z,5.23
2019-03-25T21:57:22.304Z,5.80
2019-03-25T21:59:51.183Z,6.23
2019-03-25T22:02:38.983Z,5.77
2019-03-25T22:05:26.941Z,6.50
2019-03-25T22:07:55.636Z,5.90
2019-03-25T22:10:36.119Z,5.33
2019-03-25T22:12:54.667Z,6.13
2019-03-25T22:15:23.313Z,6.37
2019-03-25T22:20:46.578Z,6.77
2019-03-25T22:25:51.012Z,5.47
2019-03-25T22:31:07.809Z,5.37
2019-03-25T22:33:36.429Z,5.77
2019-03-25T22:36:05.068Z,5.97
2019-03-25T22:38:53.063Z,5.13
2019-03-25T22:41:41.176Z,4.93
2019-03-25T22:44:11.817Z,5.83
2019-03-25T22:46:59.519Z,4.60
2019-03-25T22:49:28.217Z,4.87
2019-03-25T22:52:16.134Z,4.43
2019-03-25T22:54:46.449Z,5.33
2019-03-25T22:57:15.062Z,4.60
2019-03-25T22:59:43.752Z,4.57
2019-03-25T23:02:12.424Z,3.93
2019-03-25T23:04:40.997Z,4.47
2019-03-25T23:07:28.864Z,4.40
2019-03-25T23:09:57.420Z,4.37
2019-03-25T23:12:26.154Z,4.57
2019-03-25T23:15:34.656Z,4.10
2019-03-25T23:18:03.416Z,3.90
2019-03-25T23:20:51.248Z,4.20
2019-03-25T23:23:39.829Z,4.47
2019-03-25T23:26:08.877Z,4.53
2019-03-25T23:28:38.389Z,4.37
2019-03-25T23:31:07.151Z,3.97
2019-03-25T23:33:55.725Z,5.13
2019-03-25T23:36:25.118Z,3.87
2019-03-25T23:38:54.378Z,5.00
2019-03-25T23:42:03.200Z,4.57
2019-03-25T23:44:51.630Z,4.80
2019-03-25T23:50:28.856Z,4.30
2019-03-25T23:52:57.876Z,3.93
2019-03-25T23:55:27.101Z,4.23
2019-03-25T23:57:55.754Z,4.20
